Time;durP1;ratioP1;P1;durP2;ratioP2;P2;SDS_P1;SDS_P2;PMS_P1;PMS_P2;Temp;Humidity;BMP_temperature;BMP_pressure;BME280_temperature;BME280_humidity;BME280_pressure;Samples;Min_cycle;Max_cycle;Signal;HPM_P1;HPM_P2
2021/04/12 00:00:12;;;;;;;34.60;5.10;;;;;;;4.29;100.00;96611.38;4963476;28;20244;-70
2021/04/12 00:02:46;;;;;;;6.15;3.90;;;;;;;4.35;100.00;96618.06;4965939;28;20609;-72
2021/04/12 00:05:24;;;;;;;6.53;4.00;;;;;;;4.18;100.00;96617.81;4969763;28;20266;-71
2021/04/12 00:08:00;;;;;;;4.30;3.60;;;;;;;4.21;100.00;96617.72;4968740;28;20649;-72
2021/04/12 00:10:33;;;;;;;5.53;4.43;;;;;;;4.28;100.00;96622.56;4957396;28;20203;-72
2021/04/12 00:13:05;;;;;;;5.63;4.10;;;;;;;4.41;100.00;96617.78;4969050;28;20529;-70
2021/04/12 00:15:35;;;;;;;6.28;4.53;;;;;;;4.40;100.00;96623.84;4960986;28;20244;-70
2021/04/12 00:18:11;;;;;;;5.18;4.43;;;;;;;4.26;100.00;96619.22;4977488;28;20230;-70
2021/04/12 00:20:45;;;;;;;6.28;4.45;;;;;;;4.22;100.00;96627.94;4969176;28;20322;-71
2021/04/12 00:23:18;;;;;;;5.28;4.22;;;;;;;4.26;100.00;96626.09;4968684;28;20936;-71
2021/04/12 00:25:52;;;;;;;6.05;4.03;;;;;;;4.30;100.00;96625.91;4962175;28;20537;-70
2021/04/12 00:28:22;;;;;;;4.45;3.72;;;;;;;4.16;100.00;96627.34;4969184;28;20233;-72
2021/04/12 00:30:55;;;;;;;5.68;4.15;;;;;;;4.17;100.00;96636.75;4977986;28;20641;-71
2021/04/12 00:33:28;;;;;;;6.13;4.43;;;;;;;4.15;100.00;96652.25;4971903;28;20560;-71
2021/04/12 00:36:03;;;;;;;6.45;4.28;;;;;;;4.05;100.00;96661.19;4965447;28;20198;-71
2021/04/12 00:38:35;;;;;;;8.27;5.05;;;;;;;3.94;100.00;96677.91;4973494;28;20224;-73
2021/04/12 00:41:12;;;;;;;9.25;4.50;;;;;;;3.95;100.00;96689.91;4971785;28;20523;-70
2021/04/12 00:43:50;;;;;;;7.30;5.15;;;;;;;3.99;100.00;96670.88;4973315;28;20226;-70
2021/04/12 00:46:48;;;;;;;6.70;5.25;;;;;;;4.03;100.00;96687.88;4967024;28;20222;-70
2021/04/12 00:49:27;;;;;;;6.13;5.03;;;;;;;3.97;100.00;96675.22;4970474;28;20641;-69
2021/04/12 00:52:17;;;;;;;6.38;4.25;;;;;;;4.07;100.00;96684.34;4962115;28;20690;-72
2021/04/12 00:55:11;;;;;;;7.45;5.13;;;;;;;4.08;100.00;96691.16;4971374;28;20540;-73
2021/04/12 00:57:56;;;;;;;6.30;4.88;;;;;;;4.05;99.34;96691.25;4963571;28;20276;-72
2021/04/12 01:00:27;;;;;;;8.30;4.95;;;;;;;3.97;99.82;96705.31;4973043;28;20222;-71
2021/04/12 01:03:23;;;;;;;7.40;4.85;;;;;;;3.89;99.73;96709.88;4967144;28;20229;-70
2021/04/12 01:06:04;;;;;;;7.07;4.75;;;;;;;3.94;99.55;96711.38;4989095;28;20267;-72
2021/04/12 01:08:57;;;;;;;7.25;4.70;;;;;;;4.01;99.86;96715.44;4977973;28;20613;-69
2021/04/12 01:11:48;;;;;;;9.68;5.43;;;;;;;3.96;99.71;96711.34;4973736;28;20227;-69
2021/04/12 01:14:44;;;;;;;10.20;6.35;;;;;;;3.80;98.73;96711.00;4946616;28;20220;-69
2021/04/12 01:17:32;;;;;;;8.65;5.57;;;;;;;3.80;99.76;96711.00;4942170;28;20210;-69
2021/04/12 01:20:21;;;;;;;7.72;5.10;;;;;;;3.73;99.06;96719.84;4938879;28;20197;-71
2021/04/12 01:23:29;;;;;;;7.82;5.28;;;;;;;3.63;99.28;96718.47;4961726;28;20653;-70
2021/04/12 01:26:32;;;;;;;7.00;4.40;;;;;;;3.55;99.04;96720.47;4946488;28;20692;-71
2021/04/12 01:29:38;;;;;;;8.50;5.43;;;;;;;3.47;99.29;96724.16;4956562;28;20226;-70
2021/04/12 01:32:25;;;;;;;10.57;5.15;;;;;;;3.38;99.54;96721.88;4981946;28;20769;-69
2021/04/12 01:35:29;;;;;;;7.15;4.82;;;;;;;3.39;99.74;96723.56;4948841;28;20199;-70
2021/04/12 01:38:02;;;;;;;7.65;4.90;;;;;;;3.40;100.00;96731.25;4985132;28;20280;-68
2021/04/12 01:40:52;;;;;;;8.05;5.57;;;;;;;3.33;100.00;96734.03;4950021;28;20639;-69
2021/04/12 01:43:26;;;;;;;7.63;4.00;;;;;;;3.31;100.00;96736.66;4942664;28;20633;-70
2021/04/12 01:46:04;;;;;;;8.70;5.50;;;;;;;3.16;100.00;96742.28;4951345;28;20644;-68
2021/04/12 01:48:59;;;;;;;8.30;4.95;;;;;;;3.17;100.00;96749.09;4957380;28;20301;-69
2021/04/12 01:52:06;;;;;;;11.05;5.75;;;;;;;3.14;100.00;96744.06;4939085;28;20208;-69
2021/04/12 01:54:45;;;;;;;10.60;5.75;;;;;;;3.06;100.00;96758.88;4969588;28;20214;-68
2021/04/12 01:57:55;;;;;;;9.00;5.90;;;;;;;3.07;100.00;96760.56;4972580;28;20198;-70
2021/04/12 02:00:48;;;;;;;8.98;5.97;;;;;;;3.13;100.00;96775.81;4877737;29;20523;-69
2021/04/12 02:03:48;;;;;;;6.38;4.70;;;;;;;3.15;100.00;96786.88;4895257;28;20229;-68
2021/04/12 02:06:36;;;;;;;10.02;5.93;;;;;;;3.10;100.00;96799.03;4896009;29;20220;-70
2021/04/12 02:09:17;;;;;;;8.25;5.65;;;;;;;3.10;100.00;96799.03;4891865;28;20834;-68
2021/04/12 02:11:54;;;;;;;7.95;5.95;;;;;;;3.39;100.00;96805.88;4897034;29;20212;-68
2021/04/12 02:15:00;;;;;;;7.97;5.85;;;;;;;3.47;100.00;96815.06;4898844;28;20236;-69
2021/04/12 02:17:43;;;;;;;6.90;4.53;;;;;;;3.29;100.00;96809.59;4826838;29;20681;-70
2021/04/12 02:20:16;;;;;;;7.30;5.07;;;;;;;3.26;100.00;96813.13;4883065;29;20300;-68
2021/04/12 02:23:00;;;;;;;8.43;5.05;;;;;;;3.29;100.00;96804.44;4883106;29;20221;-69
2021/04/12 02:25:38;;;;;;;7.47;4.97;;;;;;;3.39;100.00;96817.00;4893514;29;20304;-70
2021/04/12 02:28:34;;;;;;;7.85;5.88;;;;;;;3.29;100.00;96797.59;4895317;28;20686;-70
2021/04/12 02:31:21;;;;;;;8.57;5.05;;;;;;;3.28;100.00;96813.91;4889758;29;20197;-70
2021/04/12 02:33:59;;;;;;;7.80;5.22;;;;;;;3.30;100.00;96812.13;4886062;29;20564;-70
2021/04/12 02:36:38;;;;;;;6.68;5.20;;;;;;;3.35;100.00;96809.41;4903212;28;20639;-69
2021/04/12 02:39:16;;;;;;;11.30;5.80;;;;;;;3.56;100.00;96817.34;4945047;28;20238;-69
2021/04/12 02:42:02;;;;;;;8.88;5.57;;;;;;;3.53;99.86;96822.56;4940305;28;20562;-70
2021/04/12 02:44:48;;;;;;;9.43;6.35;;;;;;;3.39;100.00;96827.28;4956358;28;20752;-69
2021/04/12 02:47:48;;;;;;;6.97;5.03;;;;;;;3.41;99.62;96822.94;4954421;28;20621;-70
2021/04/12 02:50:36;;;;;;;7.55;5.28;;;;;;;3.41;99.29;96830.66;4949349;28;20183;-70
2021/04/12 02:53:23;;;;;;;8.80;5.57;;;;;;;3.49;99.83;96843.28;4951628;28;20721;-69
2021/04/12 02:59:18;;;;;;;13.95;5.60;;;;;;;3.48;99.56;96842.47;4947849;28;20709;-71
2021/04/12 03:02:11;;;;;;;8.15;5.20;;;;;;;3.52;99.39;96831.16;4953714;28;20249;-71
2021/04/12 03:04:52;;;;;;;7.78;4.90;;;;;;;3.75;99.20;96869.88;4950374;28;20278;-71
2021/04/12 03:07:52;;;;;;;11.00;5.63;;;;;;;3.67;98.77;96865.88;4940868;28;20198;-71
2021/04/12 03:10:25;;;;;;;7.80;4.80;;;;;;;3.74;98.41;96883.66;4952316;28;20390;-69
2021/04/12 03:13:29;;;;;;;10.73;4.45;;;;;;;3.74;97.50;96881.06;4954685;28;20674;-69
2021/04/12 03:16:14;;;;;;;9.68;6.25;;;;;;;3.72;97.43;96876.88;4952324;28;20633;-69
2021/04/12 03:19:19;;;;;;;7.05;3.75;;;;;;;3.51;97.79;96864.66;4955151;28;20221;-71
2021/04/12 03:22:17;;;;;;;6.97;3.80;;;;;;;3.64;98.28;96881.41;4952463;28;20190;-69
2021/04/12 03:25:02;;;;;;;6.90;3.33;;;;;;;3.64;97.44;96900.28;4957842;28;20237;-69
2021/04/12 03:27:50;;;;;;;7.13;3.72;;;;;;;3.36;97.25;96868.53;4957749;28;20561;-70
2021/04/12 03:30:44;;;;;;;4.50;3.47;;;;;;;3.27;97.29;96870.53;4968400;28;20711;-71
2021/04/12 03:33:25;;;;;;;5.72;3.17;;;;;;;3.41;97.68;96897.53;4963129;28;20841;-70
2021/04/12 03:36:07;;;;;;;4.60;2.90;;;;;;;3.52;97.90;96890.34;4953003;28;20190;-70
2021/04/12 03:38:44;;;;;;;5.90;3.40;;;;;;;3.58;97.73;96879.88;4956045;28;20314;-71
2021/04/12 03:41:55;;;;;;;5.70;2.70;;;;;;;3.56;97.37;96886.81;4939875;28;20800;-70
2021/04/12 03:45:03;;;;;;;5.53;3.20;;;;;;;3.65;97.03;96886.50;4931973;28;20859;-72
2021/04/12 03:47:51;;;;;;;4.47;2.78;;;;;;;3.67;97.04;96889.88;4946601;28;20922;-73
2021/04/12 03:50:33;;;;;;;4.05;2.63;;;;;;;3.65;96.33;96898.53;5000060;28;20182;-71
2021/04/12 03:53:35;;;;;;;2.13;1.92;;;;;;;3.52;96.52;96900.63;4979910;28;20306;-71
2021/04/12 03:56:24;;;;;;;2.30;1.90;;;;;;;3.58;96.72;96905.59;4989451;28;20677;-70
2021/04/12 03:59:14;;;;;;;2.13;1.92;;;;;;;3.58;96.11;96913.31;4977336;28;20614;-72
2021/04/12 04:02:14;;;;;;;2.63;2.15;;;;;;;3.46;96.76;96915.41;4974126;28;20192;-71
2021/04/12 04:05:17;;;;;;;2.20;1.90;;;;;;;3.46;96.51;96929.09;4967400;28;20278;-71
2021/04/12 04:08:11;;;;;;;1.92;1.70;;;;;;;3.36;96.64;96940.56;4970844;28;20665;-72
2021/04/12 04:10:57;;;;;;;3.35;2.45;;;;;;;3.33;96.72;96937.22;4965250;28;20542;-72
2021/04/12 04:13:38;;;;;;;6.68;2.95;;;;;;;3.23;96.62;96939.22;4965410;28;20666;-71
2021/04/12 04:16:12;;;;;;;3.65;2.35;;;;;;;3.30;97.42;96956.16;4974257;28;20190;-71
2021/04/12 04:18:53;;;;;;;3.60;2.50;;;;;;;3.19;97.80;96917.06;4979478;28;20225;-69
2021/04/12 04:21:48;;;;;;;3.33;2.60;;;;;;;3.36;97.48;96953.41;4971079;28;20191;-70
2021/04/12 04:24:48;;;;;;;2.60;2.17;;;;;;;3.29;96.87;96959.63;4979283;28;20290;-72
2021/04/12 04:27:43;;;;;;;3.75;2.67;;;;;;;3.26;97.85;96964.84;4957907;28;20567;-70
2021/04/12 04:30:37;;;;;;;3.40;2.55;;;;;;;2.92;97.64;96956.38;4980509;28;20241;-71
2021/04/12 04:33:27;;;;;;;3.63;2.67;;;;;;;3.03;98.68;96961.22;4964771;28;20550;-70
2021/04/12 04:36:18;;;;;;;3.42;2.70;;;;;;;3.15;98.98;96972.00;4979284;28;20194;-69
2021/04/12 04:39:19;;;;;;;3.08;2.60;;;;;;;3.11;98.35;96978.13;4977086;28;20239;-71
2021/04/12 04:42:07;;;;;;;3.70;2.70;;;;;;;3.13;98.13;96983.22;4950816;28;20217;-70
2021/04/12 04:44:50;;;;;;;3.53;2.38;;;;;;;3.15;98.46;96990.00;4974542;28;20217;-70
2021/04/12 04:48:15;;;;;;;4.07;2.55;;;;;;;2.98;98.65;96991.34;4954620;28;20704;-70
2021/04/12 04:51:15;;;;;;;3.80;2.70;;;;;;;2.98;98.85;96996.47;4968071;28;20654;-71
2021/04/12 04:54:15;;;;;;;3.97;3.35;;;;;;;2.93;98.59;97004.31;4966945;28;20689;-70
2021/04/12 04:56:59;;;;;;;6.38;4.30;;;;;;;2.84;99.27;97009.69;4974923;28;20213;-70
2021/04/12 04:59:38;;;;;;;4.65;3.65;;;;;;;2.88;99.88;97003.56;4969124;28;20708;-70
2021/04/12 05:02:31;;;;;;;5.55;3.85;;;;;;;2.74;100.00;97008.25;4970849;28;20636;-71
2021/04/12 05:05:36;;;;;;;6.70;4.40;;;;;;;2.70;100.00;97018.59;4982871;28;20214;-70
2021/04/12 05:08:31;;;;;;;6.53;4.60;;;;;;;2.79;100.00;97029.50;4961103;28;20729;-70
2021/04/12 05:11:35;;;;;;;6.93;4.82;;;;;;;2.72;100.00;97035.69;4959316;28;20754;-71
2021/04/12 05:14:33;;;;;;;6.75;4.90;;;;;;;2.84;100.00;97035.38;4971445;28;20806;-70
2021/04/12 05:17:48;;;;;;;6.85;5.45;;;;;;;2.92;100.00;97043.75;4968452;28;20574;-70
2021/04/12 05:20:27;;;;;;;8.48;5.50;;;;;;;3.00;99.22;97046.16;4951910;28;20273;-70
2021/04/12 05:23:12;;;;;;;9.70;6.07;;;;;;;2.86;99.45;97036.19;4990463;28;20281;-69
2021/04/12 05:26:05;;;;;;;8.52;6.35;;;;;;;2.99;99.74;97047.00;4977429;28;20222;-70
2021/04/12 05:29:28;;;;;;;10.75;6.57;;;;;;;3.06;98.99;97053.69;4957132;28;20225;-70
2021/04/12 05:32:36;;;;;;;11.25;6.50;;;;;;;3.20;99.17;97072.16;4951532;28;20649;-71
2021/04/12 05:35:25;;;;;;;10.13;6.15;;;;;;;3.10;98.35;97076.69;4972789;28;20329;-70
2021/04/12 05:38:31;;;;;;;10.55;6.70;;;;;;;3.11;98.80;97078.41;4963780;28;20700;-70
2021/04/12 05:41:25;;;;;;;11.25;7.05;;;;;;;3.23;98.31;97083.22;4964910;28;20201;-71
2021/04/12 05:44:06;;;;;;;10.98;7.72;;;;;;;3.00;98.56;97080.38;4976528;28;20612;-70
2021/04/12 05:47:08;;;;;;;18.85;11.38;;;;;;;2.98;99.10;97077.03;4977148;28;20205;-70
2021/04/12 05:49:58;;;;;;;14.52;8.95;;;;;;;2.95;99.57;97096.81;4966152;28;20811;-70
2021/04/12 05:52:49;;;;;;;16.80;8.32;;;;;;;3.01;99.64;97094.94;4973539;28;20219;-70
2021/04/12 05:55:26;;;;;;;16.58;8.38;;;;;;;3.03;99.35;97094.91;4972405;28;20186;-70
2021/04/12 05:58:19;;;;;;;14.35;8.77;;;;;;;3.08;99.46;97093.88;4969608;28;20337;-71
2021/04/12 06:00:57;;;;;;;18.70;8.63;;;;;;;3.19;99.40;97107.34;4965120;28;20282;-70
2021/04/12 06:03:58;;;;;;;15.95;8.65;;;;;;;3.25;98.99;97112.34;4962138;28;20223;-72
2021/04/12 06:06:57;;;;;;;14.50;8.65;;;;;;;3.28;98.89;97121.66;4949569;28;20749;-71
2021/04/12 06:09:48;;;;;;;11.18;7.68;;;;;;;3.40;99.07;97134.22;4980394;28;20288;-70
2021/04/12 06:12:34;;;;;;;13.60;8.30;;;;;;;3.38;98.53;97129.13;4969590;28;20183;-71
2021/04/12 06:15:38;;;;;;;11.95;7.45;;;;;;;3.39;97.99;97130.81;5009875;28;20717;-71
2021/04/12 06:18:37;;;;;;;14.18;8.18;;;;;;;3.47;97.29;97136.63;4963749;28;20289;-70
2021/04/12 06:21:21;;;;;;;15.32;8.55;;;;;;;3.42;97.51;97141.03;4968567;28;20677;-70
2021/04/12 06:24:19;;;;;;;12.73;7.95;;;;;;;3.35;97.64;97147.22;4974449;28;20404;-71
2021/04/12 06:27:12;;;;;;;16.48;8.50;;;;;;;3.59;98.39;97154.31;4969247;28;20866;-71
2021/04/12 06:30:16;;;;;;;15.25;8.88;;;;;;;3.56;97.34;97154.38;4949283;28;20252;-72
2021/04/12 06:33:10;;;;;;;11.50;7.53;;;;;;;3.72;97.44;97155.69;4946090;28;20904;-71
2021/04/12 06:36:07;;;;;;;13.20;7.93;;;;;;;3.81;97.16;97160.56;4946507;28;20190;-71
2021/04/12 06:38:59;;;;;;;12.50;7.35;;;;;;;3.80;96.38;97164.03;4924319;29;20707;-71
2021/04/12 06:42:06;;;;;;;11.55;7.05;;;;;;;3.87;96.30;97172.44;4930974;28;20818;-69
2021/04/12 06:45:01;;;;;;;11.70;7.40;;;;;;;3.95;95.28;97184.22;4939381;28;20226;-70
2021/04/12 06:47:49;;;;;;;16.75;7.90;;;;;;;4.04;95.30;97179.69;4930746;28;20583;-71
2021/04/12 06:50:55;;;;;;;13.65;8.23;;;;;;;4.00;94.42;97188.34;4941201;28;20278;-71
2021/04/12 06:54:14;;;;;;;11.95;8.10;;;;;;;4.03;94.52;97198.59;4950590;28;20277;-70
2021/04/12 06:57:12;;;;;;;18.70;10.75;;;;;;;3.99;95.40;97194.41;4947280;28;20249;-70
2021/04/12 07:00:06;;;;;;;13.52;9.13;;;;;;;3.86;94.84;97199.91;4932599;28;20225;-70
2021/04/12 07:03:15;;;;;;;11.88;7.30;;;;;;;3.85;95.02;97198.25;4927987;28;20593;-70
2021/04/12 07:06:32;;;;;;;19.88;10.40;;;;;;;3.72;96.47;97203.72;4933513;28;20294;-70
2021/04/12 07:09:32;;;;;;;24.25;10.38;;;;;;;3.62;96.41;97203.13;4933900;28;20857;-71
2021/04/12 07:12:28;;;;;;;16.88;9.73;;;;;;;3.61;97.31;97213.47;4930272;28;20214;-68
2021/04/12 07:15:32;;;;;;;17.80;11.65;;;;;;;3.54;97.26;97219.63;4925437;28;20571;-70
2021/04/12 07:18:51;;;;;;;18.90;11.02;;;;;;;3.69;98.40;97221.81;4918245;28;20240;-70
2021/04/12 07:21:33;;;;;;;17.50;10.30;;;;;;;3.64;97.42;97231.38;4927420;28;20217;-70
2021/04/12 07:24:38;;;;;;;21.08;10.50;;;;;;;3.78;97.46;97235.31;4914728;28;20530;-70
2021/04/12 07:27:55;;;;;;;20.75;9.55;;;;;;;3.70;96.39;97238.97;4935506;28;20242;-71
2021/04/12 07:30:40;;;;;;;16.50;8.80;;;;;;;3.73;96.78;97246.59;4960684;28;20198;-70
2021/04/12 07:33:32;;;;;;;19.13;9.55;;;;;;;3.67;96.30;97249.34;4966447;28;20823;-70
2021/04/12 07:36:37;;;;;;;24.17;13.55;;;;;;;3.65;96.45;97253.66;4961122;28;20192;-69
2021/04/12 07:39:42;;;;;;;14.10;8.57;;;;;;;3.73;96.94;97241.44;4964452;28;20643;-69
2021/04/12 07:42:44;;;;;;;12.88;8.18;;;;;;;3.76;95.84;97252.50;4971802;28;20680;-70
2021/04/12 07:48:38;;;;;;;14.93;8.73;;;;;;;3.88;96.01;97259.94;5049465;27;20547;-41
2021/04/12 07:51:46;;;;;;;17.75;8.43;;;;;;;3.90;95.73;97268.44;5031281;28;20693;-42
2021/04/12 07:54:48;;;;;;;14.00;8.98;;;;;;;4.05;96.10;97270.63;5027854;28;20717;-42
2021/04/12 07:57:55;;;;;;;19.95;8.93;;;;;;;4.12;95.73;97264.44;5031094;28;20878;-35
2021/04/12 08:01:03;;;;;;;16.52;9.05;;;;;;;4.22;95.10;97277.03;5027186;28;20227;-35
2021/04/12 08:03:59;;;;;;;12.00;8.52;;;;;;;4.27;94.80;97279.50;5020500;27;20278;-42
2021/04/12 08:07:09;;;;;;;11.90;8.40;;;;;;;4.27;94.69;97289.78;5010215;28;20750;-42
2021/04/12 08:10:10;;;;;;;24.42;12.60;;;;;;;4.37;94.21;97286.09;5005984;28;20705;-34
2021/04/12 08:13:32;;;;;;;17.63;11.13;;;;;;;4.45;94.14;97289.31;5011272;28;20222;-34
2021/04/12 08:16:19;;;;;;;20.35;8.30;;;;;;;4.58;93.81;97291.50;5010593;28;20636;-42
2021/04/12 08:19:16;;;;;;;12.38;7.75;;;;;;;4.48;94.25;97289.22;5006040;28;20620;-43
2021/04/12 08:22:50;;;;;;;17.73;8.65;;;;;;;4.52;93.57;97280.53;5006361;28;20622;-36
2021/04/12 08:25:47;;;;;;;16.67;8.88;;;;;;;4.58;93.84;97285.53;4965637;28;20657;-40
2021/04/12 08:28:55;;;;;;;247.73;106.38;;;;;;;4.95;93.02;97292.16;5002960;28;20197;-46
2021/04/12 08:32:05;;;;;;;16.05;8.93;;;;;;;5.03;92.29;97310.00;5008958;28;20238;-46
2021/04/12 08:35:06;;;;;;;12.15;7.10;;;;;;;5.00;92.05;97304.94;4971215;28;20238;-47
2021/04/12 08:38:04;;;;;;;14.63;7.10;;;;;;;4.82;91.13;97305.47;5000470;28;20284;-47
2021/04/12 08:40:58;;;;;;;12.48;7.57;;;;;;;5.01;92.15;97311.81;5006193;28;20234;-46
2021/04/12 08:43:52;;;;;;;14.30;7.47;;;;;;;5.11;91.00;97308.06;5004757;28;20270;-47
2021/04/12 08:46:43;;;;;;;11.98;7.20;;;;;;;5.36;91.44;97309.84;5003589;28;20221;-40
2021/04/12 08:49:27;;;;;;;13.95;7.13;;;;;;;5.31;90.25;97309.16;5003958;28;20694;-47
2021/04/12 08:52:32;;;;;;;14.27;6.95;;;;;;;5.62;90.36;97306.47;5007191;28;20615;-40
2021/04/12 08:55:15;;;;;;;10.75;6.85;;;;;;;6.16;89.01;97320.22;4993191;28;20596;-46
2021/04/12 08:58:05;;;;;;;10.30;5.50;;;;;;;6.38;86.35;97326.38;5004378;28;20329;-41
2021/04/12 09:01:11;;;;;;;14.52;5.95;;;;;;;6.21;85.51;97321.78;4993335;28;20220;-40
2021/04/12 09:04:10;;;;;;;10.65;7.15;;;;;;;6.15;85.36;97328.88;4996331;28;20772;-41
2021/04/12 09:07:41;;;;;;;17.33;8.40;;;;;;;5.89;85.47;97272.88;5014477;28;20555;-40
2021/04/12 09:10:35;;;;;;;10.65;6.38;;;;;;;6.25;86.21;97319.94;4948174;28;20782;-40
2021/04/12 09:13:35;;;;;;;9.20;5.45;;;;;;;6.24;85.69;97318.22;5006249;28;20208;-40
2021/04/12 09:16:18;;;;;;;10.23;5.15;;;;;;;6.16;84.47;97322.81;4993981;28;20184;-47
2021/04/12 09:19:02;;;;;;;7.03;5.28;;;;;;;6.10;83.75;97335.94;4985749;28;20216;-47
2021/04/12 09:22:08;;;;;;;12.40;5.53;;;;;;;6.19;84.00;97340.81;4992573;28;20648;-46
2021/04/12 09:24:47;;;;;;;14.95;6.05;;;;;;;6.83;85.08;97329.94;4982318;28;20733;-40
2021/04/12 09:27:43;;;;;;;10.32;5.82;;;;;;;6.94;81.55;97338.19;4993801;28;20765;-46
2021/04/12 09:30:58;;;;;;;10.77;5.25;;;;;;;7.26;80.76;97335.25;4989985;28;20252;-47
2021/04/12 09:33:58;;;;;;;10.23;4.95;;;;;;;6.67;78.72;97297.75;4986876;28;20691;-47
2021/04/12 09:36:55;;;;;;;9.15;4.95;;;;;;;7.32;79.01;97340.19;4995138;28;20612;-47
2021/04/12 09:39:40;;;;;;;9.65;3.80;;;;;;;7.52;78.61;97342.91;4993849;28;20702;-40
2021/04/12 09:42:41;;;;;;;6.90;3.80;;;;;;;7.60;77.15;97344.31;4993227;28;20659;-46
2021/04/12 09:45:38;;;;;;;7.28;3.35;;;;;;;7.24;74.86;97331.88;4992731;28;20871;-47
2021/04/12 09:48:37;;;;;;;9.85;3.78;;;;;;;7.52;76.57;97348.06;4993476;28;20680;-40
2021/04/12 09:51:50;;;;;;;6.95;2.80;;;;;;;7.52;73.86;97363.63;4992994;28;20208;-41
2021/04/12 09:55:04;;;;;;;4.85;2.70;;;;;;;7.64;74.86;97352.81;4984228;28;20637;-36
2021/04/12 09:58:19;;;;;;;5.75;3.45;;;;;;;7.57;74.10;97364.28;4952943;28;20201;-46
2021/04/12 10:01:10;;;;;;;6.15;3.10;;;;;;;7.58;74.76;97369.41;4967249;28;20754;-39
2021/04/12 10:04:14;;;;;;;5.60;2.72;;;;;;;7.52;72.89;97367.03;4974696;28;21153;-39
2021/04/12 10:07:28;;;;;;;6.50;4.05;;;;;;;7.41;74.97;97366.59;4984953;28;21104;-39
2021/04/12 10:10:16;;;;;;;6.25;3.67;;;;;;;7.16;73.24;97364.97;4989191;28;20600;-41
2021/04/12 10:13:12;;;;;;;10.68;5.00;;;;;;;7.05;74.83;97377.44;4989743;28;20204;-47
2021/04/12 10:15:53;;;;;;;4.85;3.45;;;;;;;7.08;77.09;97378.16;4990092;28;20563;-47
2021/04/12 10:18:32;;;;;;;3.40;2.40;;;;;;;7.11;72.64;97385.00;4985860;28;20229;-47
2021/04/12 10:21:14;;;;;;;7.00;2.83;;;;;;;7.37;72.10;97392.66;4970560;28;20229;-47
2021/04/12 10:23:44;;;;;;;5.88;2.35;;;;;;;7.44;70.81;97381.19;4969359;28;20221;-47
2021/04/12 10:26:15;;;;;;;4.82;3.00;;;;;;;7.53;72.40;97386.03;4969619;28;20671;-47
2021/04/12 10:28:47;;;;;;;6.82;2.83;;;;;;;7.43;69.16;97354.44;4969236;28;20751;-41
2021/04/12 10:31:27;;;;;;;6.68;2.50;;;;;;;7.69;69.69;97376.75;4965048;28;20194;-41
2021/04/12 10:34:10;;;;;;;9.98;2.20;;;;;;;7.50;69.73;97370.59;4989575;28;20459;-48
2021/04/12 10:36:51;;;;;;;10.30;2.88;;;;;;;7.29;70.41;97367.03;4991969;28;20185;-47
2021/04/12 10:39:29;;;;;;;5.93;2.63;;;;;;;7.68;69.73;97372.50;4989233;28;20691;-48
2021/04/12 10:42:02;;;;;;;3.35;1.90;;;;;;;7.88;67.26;97363.03;4991211;28;20636;-41
2021/04/12 10:44:35;;;;;;;6.13;1.95;;;;;;;8.09;64.84;97358.78;4992141;28;20243;-47
2021/04/12 10:47:17;;;;;;;5.72;1.85;;;;;;;8.60;65.45;97360.94;4992317;28;20616;-47
2021/04/12 10:50:07;;;;;;;7.32;2.30;;;;;;;9.42;62.90;97363.34;4992211;28;20667;-48
2021/04/12 10:53:07;;;;;;;4.83;1.40;;;;;;;9.45;60.59;97361.47;5004273;28;20208;-47
2021/04/12 10:55:40;;;;;;;4.63;2.10;;;;;;;9.55;60.42;97360.16;4991657;28;20474;-47
2021/04/12 10:58:24;;;;;;;2.50;1.53;;;;;;;9.95;59.91;97361.75;4992304;28;20867;-48
2021/04/12 11:01:04;;;;;;;6.60;1.77;;;;;;;10.33;57.54;97352.97;4992925;28;20436;-48
2021/04/12 11:03:52;;;;;;;9.60;2.57;;;;;;;10.82;54.57;97347.84;4990311;28;20458;-41
2021/04/12 11:07:06;;;;;;;6.17;2.60;;;;;;;10.68;58.16;97350.31;4989520;28;20447;-48
2021/04/12 11:10:02;;;;;;;2.70;1.27;;;;;;;11.08;56.06;97347.38;4972445;28;20817;-48
2021/04/12 11:12:42;;;;;;;3.33;1.50;;;;;;;10.41;54.80;97359.50;4987849;28;20448;-39
2021/04/12 11:15:21;;;;;;;6.77;1.90;;;;;;;10.18;58.01;97359.75;4990916;28;21042;-45
2021/04/12 11:17:56;;;;;;;6.10;1.87;;;;;;;9.70;58.97;97359.44;4992018;28;20475;-39
2021/04/12 11:20:31;;;;;;;6.53;2.07;;;;;;;9.45;59.86;97365.84;4988724;28;20463;-39
2021/04/12 11:23:06;;;;;;;5.50;3.03;;;;;;;9.00;60.17;97297.78;4992169;28;20845;-39
2021/04/12 11:25:40;;;;;;;10.23;2.33;;;;;;;9.32;59.44;97365.56;5021526;28;20445;-39
2021/04/12 11:28:16;;;;;;;3.97;1.50;;;;;;;9.44;58.74;97312.19;4991584;28;20577;-41
2021/04/12 11:30:53;;;;;;;3.97;1.60;;;;;;;10.02;57.06;97366.56;4991522;28;20891;-41
2021/04/12 11:33:43;;;;;;;5.83;1.63;;;;;;;9.78;58.83;97370.34;4987186;28;21002;-47
2021/04/12 11:36:21;;;;;;;7.67;1.80;;;;;;;9.89;60.53;97370.66;4992382;28;21173;-47
2021/04/12 11:39:04;;;;;;;3.53;1.53;;;;;;;9.46;57.95;97359.72;4991861;28;20467;-47
2021/04/12 11:41:37;;;;;;;2.97;1.93;;;;;;;9.36;58.00;97361.88;4978193;28;20454;-41
2021/04/12 11:44:12;;;;;;;3.37;1.60;;;;;;;9.40;58.67;97355.66;4991188;28;20488;-41
2021/04/12 11:47:01;;;;;;;8.50;1.37;;;;;;;9.62;59.17;97371.97;4991001;28;20564;-41
2021/04/12 11:49:42;;;;;;;4.83;1.50;;;;;;;9.17;56.65;97368.84;4988911;28;21044;-47
2021/04/12 11:52:16;;;;;;;4.10;1.37;;;;;;;8.95;56.31;97370.69;4991566;28;20757;-47
2021/04/12 11:54:56;;;;;;;10.37;1.40;;;;;;;8.96;57.05;97374.09;4990436;28;20934;-47
2021/04/12 11:57:43;;;;;;;5.80;1.57;;;;;;;8.94;56.18;97366.38;4988375;28;20455;-41
2021/04/12 12:00:15;;;;;;;3.03;2.07;;;;;;;8.76;58.51;97371.50;4990769;28;20458;-47
2021/04/12 12:02:53;;;;;;;1.80;1.33;;;;;;;8.99;58.90;97380.00;4992388;28;20478;-47
2021/04/12 12:05:28;;;;;;;8.33;1.30;;;;;;;9.28;55.30;97376.97;4987646;28;21050;-41
2021/04/12 12:08:00;;;;;;;2.30;1.10;;;;;;;8.78;55.94;97364.53;4989281;28;20460;-48
2021/04/12 12:10:41;;;;;;;1.93;1.30;;;;;;;8.63;57.51;97363.41;4991544;28;20767;-48
2021/04/12 12:13:34;;;;;;;3.20;1.27;;;;;;;8.81;57.16;97374.75;4991252;28;20755;-48
2021/04/12 12:16:19;;;;;;;4.87;1.63;;;;;;;9.73;54.95;97380.09;4992166;28;20539;-48
2021/04/12 12:18:51;;;;;;;4.43;1.30;;;;;;;10.08;53.80;97371.53;4987927;28;20471;-47
2021/04/12 12:21:22;;;;;;;22.10;2.30;;;;;;;10.35;53.05;97370.22;5019755;28;20872;-42
2021/04/12 12:24:00;;;;;;;2.17;1.20;;;;;;;9.80;52.28;97384.09;4988501;28;20471;-47
2021/04/12 12:26:35;;;;;;;2.93;1.30;;;;;;;9.63;54.28;97372.78;4989072;28;20829;-47
2021/04/12 12:29:11;;;;;;;9.53;1.67;;;;;;;9.17;54.66;97373.16;4988933;28;20467;-41
2021/04/12 12:32:01;;;;;;;8.77;2.17;;;;;;;9.01;55.06;97378.19;4990818;28;20431;-48
2021/04/12 12:34:40;;;;;;;13.67;2.53;;;;;;;8.65;58.61;97348.59;4992383;28;20965;-41
2021/04/12 12:37:25;;;;;;;14.90;1.90;;;;;;;8.99;57.76;97392.97;4997741;23;20474;-48
2021/04/12 12:39:55;;;;;;;3.00;1.30;;;;;;;9.03;57.39;97397.16;4976665;28;20565;-47
2021/04/12 12:42:27;;;;;;;5.10;1.97;;;;;;;9.04;55.10;97388.44;4982746;28;20788;-47
2021/04/12 12:45:02;;;;;;;2.00;1.20;;;;;;;8.40;55.24;97391.19;4984066;28;20467;-48
2021/04/12 12:47:55;;;;;;;2.23;1.63;;;;;;;8.18;57.04;97382.56;4992741;28;20540;-47
2021/04/12 12:50:27;;;;;;;5.37;1.57;;;;;;;8.39;55.91;97389.50;4983079;28;20460;-47
2021/04/12 12:52:57;;;;;;;4.17;1.80;;;;;;;8.16;58.19;97383.53;4981478;28;20501;-47
2021/04/12 12:55:31;;;;;;;3.87;1.40;;;;;;;8.22;57.02;97393.69;4985781;28;20447;-41
2021/04/12 12:58:08;;;;;;;2.63;1.30;;;;;;;8.12;56.00;97392.34;4990868;28;20902;-46
2021/04/12 13:00:38;;;;;;;2.70;1.30;;;;;;;8.30;58.34;97394.25;4986892;28;21016;-46
2021/04/12 13:03:18;;;;;;;3.00;1.02;;;;;;;8.60;57.89;97386.91;4992458;28;20633;-46
2021/04/12 13:05:47;;;;;;;2.53;0.93;;;;;;;8.85;59.71;97391.91;4987273;28;20200;-47
2021/04/12 13:08:20;;;;;;;1.47;1.00;;;;;;;8.80;57.06;97393.84;4971977;28;20831;-47
2021/04/12 13:10:49;;;;;;;7.63;1.67;;;;;;;8.75;55.33;97393.19;4983155;28;20878;-41
2021/04/12 13:13:24;;;;;;;1.93;1.23;;;;;;;8.62;56.14;97392.00;4976238;28;20566;-41
2021/04/12 13:15:58;;;;;;;3.00;1.10;;;;;;;8.18;56.38;97347.13;4973783;28;20440;-48
2021/04/12 13:18:33;;;;;;;9.50;1.20;;;;;;;8.18;55.79;97395.53;4983882;28;20487;-46
2021/04/12 13:21:11;;;;;;;3.33;1.43;;;;;;;7.86;56.36;97405.50;4977360;28;20843;-46
2021/04/12 13:23:53;;;;;;;3.30;1.80;;;;;;;7.84;57.54;97407.28;4991426;28;20467;-41
2021/04/12 13:26:27;;;;;;;2.42;1.20;;;;;;;7.98;56.77;97405.00;4973767;28;20899;-46